Penrose, Utah
Current Conditions -  °F | °C
As of 7:55 AM on Thursday 23 Oct 2014 (Local Time) from KBMC Reporting Station
Clear Clear  
Wind Chill:   Ceiling: Unl
Heat Index:   Visibility: 10mi
Dew Point: -1°   Wind: 0mph
Humidity: 81%   Direction: NA
Pressure: 30.15"   Gusts: NA
Location:  41.6836°N, 112.26°W
Report Text: KBMC 231355Z AUTO 00000KT 10SM CLR 02/M01 A3015 RMK AO1 T00231007
Loading
Personal Weather Stations






























Interactive Weather Map
Tropical Storm Tracking
New forecast layout! Learn more

10-Day Weather Forecast

Advertisements
Track Severe Weather on mobile